Terminal Aerodrome Forecast
Issued by NWS

Home | Current Version | Previous Version | Text Only | Print | Product List | Glossary On
Versions: 1 2 3 4 5 6 7 8 9 10 11 12
000
FTUS45 KABQ 292343
TAFSAF
TAF
KSAF 292343Z 3000/3024 11010KT P6SM SCT080 BKN120
     FM300500 05006KT P6SM SCT120
     FM301200 01006KT P6SM FEW120
     FM302000 25009KT P6SM FEW080=

USA.gov is the U.S. government's official web portal to all federal, state and local government web resources and services.